Time;durP1;ratioP1;P1;durP2;ratioP2;P2;SDS_P1;SDS_P2;PMS_P1;PMS_P2;Temp;Humidity;BMP_temperature;BMP_pressure;BME280_temperature;BME280_humidity;BME280_pressure;Samples;Min_cycle;Max_cycle;Signal;HPM_P1;HPM_P2
2023/08/17 00:01:34;;;;;;;15.55;11.02;;;23.10;99.90;;;;;;5022795;28;20183;-87
2023/08/17 00:04:00;;;;;;;22.23;11.35;;;23.10;99.90;;;;;;5039216;28;20191;-87
2023/08/17 00:06:26;;;;;;;16.65;10.80;;;23.10;99.90;;;;;;5073441;28;20543;-88
2023/08/17 00:08:51;;;;;;;18.05;10.23;;;23.00;99.90;;;;;;5039052;28;20229;-87
2023/08/17 00:11:17;;;;;;;18.90;10.95;;;23.00;99.90;;;;;;5055788;28;20175;-87
2023/08/17 00:13:43;;;;;;;15.25;10.43;;;23.00;99.90;;;;;;5039119;28;20260;-88
2023/08/17 00:16:09;;;;;;;20.08;11.32;;;23.00;99.90;;;;;;5055546;28;20183;-87
2023/08/17 00:18:34;;;;;;;18.77;10.30;;;22.90;99.90;;;;;;5073606;28;20160;-87
2023/08/17 00:21:00;;;;;;;17.75;10.73;;;22.90;99.90;;;;;;5055335;28;20221;-87
2023/08/17 00:23:26;;;;;;;14.10;10.30;;;22.90;99.90;;;;;;5055815;28;20191;-88
2023/08/17 00:25:51;;;;;;;18.58;10.93;;;22.80;99.90;;;;;;5055753;28;20178;-88
2023/08/17 00:28:17;;;;;;;17.73;10.18;;;22.70;99.90;;;;;;5073549;28;20640;-87
2023/08/17 00:30:43;;;;;;;19.08;11.48;;;22.70;99.90;;;;;;5039212;28;20187;-87
2023/08/17 00:33:08;;;;;;;15.73;10.32;;;22.70;99.90;;;;;;5038827;28;20215;-87
2023/08/17 00:35:34;;;;;;;13.63;10.50;;;22.70;99.90;;;;;;5038858;28;20184;-87
2023/08/17 00:38:00;;;;;;;13.00;9.77;;;22.70;99.90;;;;;;5055515;28;20599;-87
2023/08/17 00:40:25;;;;;;;15.65;10.45;;;22.70;99.90;;;;;;5058066;28;20642;-88
2023/08/17 00:42:51;;;;;;;14.77;11.10;;;22.70;99.90;;;;;;5059761;28;20565;-87
2023/08/17 00:45:18;;;;;;;15.40;10.57;;;22.70;99.90;;;;;;5060097;28;20262;-87
2023/08/17 00:47:44;;;;;;;18.27;11.05;;;22.70;99.90;;;;;;5059320;28;20194;-87
2023/08/17 00:50:11;;;;;;;16.77;9.82;;;22.70;99.90;;;;;;5059589;28;20640;-87
2023/08/17 00:52:38;;;;;;;15.43;10.27;;;22.60;99.90;;;;;;5059337;28;20190;-87
2023/08/17 00:55:05;;;;;;;16.25;10.25;;;22.50;99.90;;;;;;5077329;28;20176;-86
2023/08/17 00:57:31;;;;;;;16.00;10.05;;;22.50;99.90;;;;;;5077128;28;20189;-86
2023/08/17 00:59:58;;;;;;;19.92;11.27;;;22.50;99.90;;;;;;5059351;28;20207;-86
2023/08/17 01:02:24;;;;;;;20.40;11.38;;;22.50;99.90;;;;;;5077130;28;20183;-86
2023/08/17 01:04:50;;;;;;;14.40;10.13;;;22.50;99.90;;;;;;5059304;28;20270;-87
2023/08/17 01:07:15;;;;;;;19.88;10.32;;;22.50;99.90;;;;;;5042560;28;20274;-87
2023/08/17 01:09:41;;;;;;;15.32;10.23;;;22.50;99.90;;;;;;5059126;28;20636;-86
2023/08/17 01:12:29;;;;;;;15.65;10.50;;;22.50;99.90;;;;;;5059209;28;20183;-86
2023/08/17 01:15:23;;;;;;;17.13;10.23;;;22.50;99.90;;;;;;5076598;28;20210;-87
2023/08/17 01:18:23;;;;;;;12.82;9.75;;;22.50;99.90;;;;;;5076886;28;20272;-86
2023/08/17 01:20:49;;;;;;;16.02;10.50;;;22.40;99.90;;;;;;5058706;28;20198;-86
2023/08/17 01:23:15;;;;;;;13.48;9.85;;;22.40;99.90;;;;;;5058618;28;20263;-86
2023/08/17 01:25:41;;;;;;;13.20;10.18;;;22.40;99.90;;;;;;5041907;28;20180;-86
2023/08/17 01:28:07;;;;;;;17.00;10.68;;;22.40;99.90;;;;;;5058693;28;20183;-86
2023/08/17 01:30:58;;;;;;;13.75;9.95;;;22.30;99.90;;;;;;5042087;28;20266;-87
2023/08/17 01:33:42;;;;;;;16.25;10.48;;;22.20;99.90;;;;;;5064650;28;20245;-86
2023/08/17 01:36:24;;;;;;;11.85;9.35;;;22.20;99.90;;;;;;5058698;28;20574;-87
2023/08/17 01:38:52;;;;;;;21.08;10.90;;;22.20;99.90;;;;;;5058598;28;20671;-87
2023/08/17 01:41:20;;;;;;;18.45;9.80;;;22.20;99.90;;;;;;5058552;28;20187;-86
2023/08/17 01:43:47;;;;;;;16.77;10.48;;;22.20;99.90;;;;;;5058487;28;20266;-86
2023/08/17 01:46:17;;;;;;;18.10;10.07;;;22.20;99.90;;;;;;5041801;28;20186;-86
2023/08/17 01:48:43;;;;;;;15.80;10.32;;;22.20;99.90;;;;;;5058249;28;20190;-86
2023/08/17 01:51:10;;;;;;;16.90;10.32;;;22.20;99.90;;;;;;5075988;28;20690;-86
2023/08/17 01:53:36;;;;;;;16.35;9.77;;;22.20;99.90;;;;;;5075839;28;20203;-86
2023/08/17 01:56:01;;;;;;;15.82;10.32;;;22.20;99.90;;;;;;5058574;28;20178;-86
2023/08/17 01:58:27;;;;;;;14.27;10.50;;;22.20;99.90;;;;;;5058096;28;20191;-86
2023/08/17 02:00:53;;;;;;;14.10;10.45;;;22.20;99.90;;;;;;5041242;28;20186;-86
2023/08/17 02:03:18;;;;;;;12.07;9.18;;;22.20;99.90;;;;;;5058203;28;20597;-86
2023/08/17 02:05:47;;;;;;;14.50;10.13;;;22.10;99.90;;;;;;5058010;28;20202;-86
2023/08/17 02:08:13;;;;;;;14.32;10.48;;;22.10;99.90;;;;;;5075885;28;20187;-86
2023/08/17 02:10:39;;;;;;;22.85;10.73;;;22.10;99.90;;;;;;5075695;28;20176;-87
2023/08/17 02:13:04;;;;;;;13.57;9.95;;;22.00;99.90;;;;;;5041249;28;20246;-86
2023/08/17 02:15:30;;;;;;;12.95;10.05;;;22.00;99.90;;;;;;5057934;28;20186;-86
2023/08/17 02:18:01;;;;;;;14.15;10.63;;;22.00;99.90;;;;;;5057419;28;20237;-87
2023/08/17 02:20:27;;;;;;;13.48;10.45;;;22.00;99.90;;;;;;5075403;28;20167;-86
2023/08/17 02:22:52;;;;;;;15.25;10.88;;;21.90;99.90;;;;;;5075596;28;20499;-87
2023/08/17 02:25:18;;;;;;;14.30;10.55;;;21.90;99.90;;;;;;5075638;28;20300;-87
2023/08/17 02:27:43;;;;;;;14.13;10.45;;;21.90;99.90;;;;;;5075450;28;20179;-87
2023/08/17 02:30:09;;;;;;;14.15;10.27;;;21.80;99.90;;;;;;5057731;28;20595;-87
2023/08/17 02:32:35;;;;;;;13.73;10.02;;;21.80;99.90;;;;;;5057535;28;20274;-86
2023/08/17 02:35:01;;;;;;;16.10;10.82;;;21.80;99.90;;;;;;5040962;28;20318;-87
2023/08/17 02:37:27;;;;;;;16.08;10.48;;;21.80;99.90;;;;;;5090868;28;20182;-87
2023/08/17 02:39:52;;;;;;;18.35;11.20;;;21.80;99.90;;;;;;5091252;28;20205;-87
2023/08/17 02:42:18;;;;;;;13.70;10.10;;;21.80;99.90;;;;;;5077423;28;20206;-87
2023/08/17 02:44:44;;;;;;;13.88;10.30;;;21.80;99.90;;;;;;5075153;28;20175;-88
2023/08/17 02:47:10;;;;;;;17.38;10.35;;;21.70;99.90;;;;;;5057377;28;20185;-87
2023/08/17 02:49:35;;;;;;;14.70;10.73;;;21.80;99.90;;;;;;5074856;28;20258;-86
2023/08/17 02:52:01;;;;;;;22.77;11.63;;;21.70;99.90;;;;;;5057133;28;20648;-87
2023/08/17 02:54:27;;;;;;;14.88;10.15;;;21.70;99.90;;;;;;5056900;28;20294;-87
2023/08/17 02:56:52;;;;;;;16.40;10.57;;;21.70;99.90;;;;;;5040239;28;20214;-87
2023/08/17 02:59:18;;;;;;;20.23;10.63;;;21.70;99.90;;;;;;5056837;28;20203;-87
2023/08/17 03:01:45;;;;;;;15.65;10.52;;;21.70;99.90;;;;;;5057159;28;20183;-86
2023/08/17 03:04:10;;;;;;;13.77;9.95;;;21.70;99.90;;;;;;5040197;28;20190;-86
2023/08/17 03:06:36;;;;;;;18.00;10.50;;;21.70;99.90;;;;;;5056689;28;20274;-86
2023/08/17 03:09:02;;;;;;;17.05;10.90;;;21.80;99.90;;;;;;5074775;28;20201;-86
2023/08/17 03:11:28;;;;;;;18.92;11.10;;;21.70;99.90;;;;;;5056917;28;20270;-86
2023/08/17 03:13:59;;;;;;;22.13;14.20;;;21.70;99.90;;;;;;5056897;28;20207;-86
2023/08/17 03:16:25;;;;;;;16.17;11.02;;;21.70;99.90;;;;;;5056509;28;20368;-86
2023/08/17 03:18:51;;;;;;;19.55;11.68;;;21.70;99.90;;;;;;5056761;28;20175;-86
2023/08/17 03:21:18;;;;;;;15.75;10.70;;;21.60;99.90;;;;;;5074136;28;20179;-86
2023/08/17 03:23:44;;;;;;;16.38;11.00;;;21.70;99.90;;;;;;5056718;28;20256;-87
2023/08/17 03:26:10;;;;;;;17.20;10.85;;;21.70;99.90;;;;;;5023358;28;20218;-87
2023/08/17 03:28:35;;;;;;;16.48;10.70;;;21.70;99.90;;;;;;5073956;28;20666;-87
2023/08/17 03:31:02;;;;;;;18.00;11.65;;;21.70;99.90;;;;;;5056284;28;20260;-87
2023/08/17 03:33:28;;;;;;;15.07;11.65;;;21.80;99.90;;;;;;5073437;28;20210;-87
2023/08/17 03:35:54;;;;;;;19.05;11.68;;;21.70;99.90;;;;;;5055404;28;20171;-92
2023/08/17 03:38:20;;;;;;;17.15;11.82;;;21.80;99.90;;;;;;5074082;28;20723;-91
2023/08/17 03:40:52;;;;;;;16.10;10.77;;;21.80;99.90;;;;;;5055075;28;20202;-88
2023/08/17 03:43:18;;;;;;;15.23;11.23;;;22.10;99.90;;;;;;5057814;28;20183;-89
2023/08/17 03:45:44;;;;;;;22.33;12.02;;;21.70;99.90;;;;;;5061727;28;20237;-91
2023/08/17 03:48:10;;;;;;;16.77;11.20;;;21.70;99.90;;;;;;5038673;28;20667;-89
2023/08/17 03:50:36;;;;;;;16.95;11.85;;;;;;;;;;5055173;28;20182;-90
2023/08/17 03:53:02;;;;;;;15.57;10.75;;;21.80;99.90;;;;;;5072698;28;20195;-90
2023/08/17 03:55:27;;;;;;;15.40;10.60;;;22.00;99.90;;;;;;5054976;28;20200;-89
2023/08/17 03:57:53;;;;;;;14.25;11.10;;;21.80;99.90;;;;;;5038626;28;20176;-89
2023/08/17 04:00:19;;;;;;;15.57;11.18;;;22.00;99.90;;;;;;5054842;28;20582;-89
2023/08/17 04:02:44;;;;;;;17.15;11.38;;;22.00;99.90;;;;;;5072997;28;20171;-90
2023/08/17 04:05:10;;;;;;;16.70;11.10;;;21.80;99.90;;;;;;5054864;28;20198;-89
2023/08/17 04:07:36;;;;;;;19.17;11.32;;;21.80;99.90;;;;;;5054503;28;20248;-90
2023/08/17 04:10:07;;;;;;;13.32;10.55;;;22.00;99.90;;;;;;5054447;28;20223;-90
2023/08/17 04:12:32;;;;;;;16.85;12.02;;;21.80;99.90;;;;;;5054728;28;20262;-90
2023/08/17 04:14:58;;;;;;;16.77;11.40;;;;;;;;;;5037926;28;20352;-91
2023/08/17 04:17:24;;;;;;;16.48;11.77;;;22.00;99.90;;;;;;5057120;28;20266;-91
2023/08/17 04:19:51;;;;;;;20.17;12.30;;;;;;;;;;5057244;28;20774;-91
2023/08/17 04:22:16;;;;;;;19.42;12.05;;;22.10;99.90;;;;;;5056024;28;20644;-91
2023/08/17 04:24:42;;;;;;;19.33;11.75;;;22.10;99.90;;;;;;5033437;28;20178;-92
2023/08/17 04:27:08;;;;;;;18.17;11.70;;;22.30;99.90;;;;;;5096152;28;20623;-92
2023/08/17 04:29:34;;;;;;;14.95;11.32;;;22.10;99.90;;;;;;5038393;28;20591;-91
2023/08/17 04:32:00;;;;;;;15.88;10.90;;;22.10;99.90;;;;;;5054593;28;20203;-92
2023/08/17 04:34:25;;;;;;;20.90;11.45;;;22.10;99.90;;;;;;5054891;28;20653;-92
2023/08/17 04:36:51;;;;;;;16.08;11.23;;;;;;;;;;5055014;28;20632;-93
2023/08/17 04:39:17;;;;;;;19.02;11.85;;;22.20;99.90;;;;;;5055648;28;20286;-91
2023/08/17 04:41:43;;;;;;;19.08;11.38;;;22.10;99.90;;;;;;5054067;28;20270;-91
2023/08/17 04:44:09;;;;;;;17.33;11.35;;;22.10;99.90;;;;;;5054647;28;20183;-92
2023/08/17 04:46:35;;;;;;;18.40;11.57;;;22.20;99.90;;;;;;5055537;28;20179;-91
2023/08/17 04:49:01;;;;;;;16.80;11.82;;;;;;;;;;5076997;28;20187;-90
2023/08/17 04:51:27;;;;;;;14.85;11.15;;;22.30;99.90;;;;;;5058003;28;20171;-91
2023/08/17 04:53:53;;;;;;;18.27;12.35;;;22.50;99.90;;;;;;5057085;28;20268;-91
2023/08/17 04:56:20;;;;;;;23.35;11.95;;;22.60;99.90;;;;;;5057664;28;20187;-93
2023/08/17 04:58:46;;;;;;;19.65;12.25;;;20.50;99.90;;;;;;5057134;28;20236;-92
2023/08/17 05:01:13;;;;;;;16.35;10.80;;;22.40;99.90;;;;;;5074767;28;20227;-92
2023/08/17 05:03:39;;;;;;;15.98;11.50;;;22.40;99.90;;;;;;5055585;28;20581;-91
2023/08/17 05:06:05;;;;;;;18.13;12.05;;;22.50;99.90;;;;;;5039223;28;20624;-91
2023/08/17 05:08:30;;;;;;;18.98;12.48;;;23.00;99.90;;;;;;5039885;28;20191;-92
2023/08/17 05:10:56;;;;;;;24.75;12.27;;;22.60;99.90;;;;;;5038962;28;20214;-86
2023/08/17 05:13:22;;;;;;;22.90;12.57;;;22.70;99.90;;;;;;5038818;28;20668;-86
2023/08/17 05:15:47;;;;;;;20.58;12.25;;;22.60;99.90;;;;;;5073452;28;20172;-86
2023/08/17 05:18:13;;;;;;;17.90;11.90;;;22.70;99.90;;;;;;5035673;28;20587;-86
2023/08/17 05:20:38;;;;;;;18.55;12.05;;;22.70;99.90;;;;;;5052048;28;20223;-86
2023/08/17 05:23:05;;;;;;;17.77;12.13;;;22.70;99.90;;;;;;5035321;28;20180;-85
2023/08/17 05:25:30;;;;;;;18.42;12.27;;;22.70;99.90;;;;;;5052632;28;20180;-86
2023/08/17 05:27:56;;;;;;;17.60;12.30;;;22.80;99.90;;;;;;5055948;28;20305;-85
2023/08/17 05:30:21;;;;;;;19.23;12.35;;;22.80;99.90;;;;;;5055908;28;20214;-86
2023/08/17 05:32:47;;;;;;;20.08;11.23;;;22.90;99.90;;;;;;5055686;28;20723;-86
2023/08/17 05:35:13;;;;;;;19.00;11.65;;;22.90;99.90;;;;;;5039463;28;20585;-86
2023/08/17 05:37:39;;;;;;;21.17;11.23;;;22.90;99.90;;;;;;5056814;28;20587;-85
2023/08/17 05:40:05;;;;;;;18.45;12.30;;;22.90;99.90;;;;;;5056512;28;20629;-85
2023/08/17 05:42:31;;;;;;;17.70;12.88;;;22.90;99.90;;;;;;5057147;28;20188;-85
2023/08/17 05:44:56;;;;;;;22.95;11.35;;;22.90;99.90;;;;;;5038993;28;20188;-85
2023/08/17 05:47:22;;;;;;;16.77;11.13;;;23.00;99.90;;;;;;5055707;28;20179;-86
2023/08/17 05:49:48;;;;;;;20.10;13.02;;;23.00;99.90;;;;;;5057912;28;20168;-85
2023/08/17 05:52:14;;;;;;;18.30;11.65;;;23.10;99.90;;;;;;5057334;28;20625;-85
2023/08/17 05:54:39;;;;;;;18.13;11.45;;;23.10;99.90;;;;;;5067115;28;20218;-85
2023/08/17 05:57:05;;;;;;;16.17;11.68;;;23.10;99.90;;;;;;5076255;28;20179;-85
2023/08/17 05:59:31;;;;;;;15.40;11.25;;;23.20;99.90;;;;;;5056833;28;20188;-85
2023/08/17 06:01:56;;;;;;;22.05;12.85;;;23.20;99.90;;;;;;5056127;28;20176;-86
2023/08/17 06:04:22;;;;;;;21.85;12.52;;;23.20;99.90;;;;;;5056283;28;20242;-85
2023/08/17 06:06:48;;;;;;;20.77;11.82;;;23.30;99.90;;;;;;5055770;28;20621;-85
2023/08/17 06:09:14;;;;;;;19.75;11.55;;;23.30;99.90;;;;;;5055673;28;20184;-87
2023/08/17 06:11:40;;;;;;;15.63;10.27;;;23.40;99.90;;;;;;5055707;28;20593;-85
2023/08/17 06:14:06;;;;;;;20.33;11.48;;;23.40;99.90;;;;;;5055524;28;20267;-86
2023/08/17 06:20:10;;;;;;;14.98;10.55;;;23.50;99.90;;;;;;5076680;28;20190;-86
2023/08/17 06:22:35;;;;;;;13.85;9.60;;;23.50;99.90;;;;;;5058796;28;20191;-85
2023/08/17 06:25:01;;;;;;;17.13;12.00;;;23.60;99.90;;;;;;5042629;28;20190;-85
2023/08/17 06:27:27;;;;;;;14.63;10.43;;;23.60;99.90;;;;;;5043801;28;20190;-85
2023/08/17 06:29:52;;;;;;;16.15;10.80;;;23.70;99.90;;;;;;5076682;28;20232;-85
2023/08/17 06:32:18;;;;;;;15.38;10.73;;;23.70;99.90;;;;;;5042664;28;20618;-85
2023/08/17 06:34:44;;;;;;;22.17;12.23;;;23.80;99.90;;;;;;5041599;28;20207;-85
2023/08/17 06:37:10;;;;;;;17.42;11.32;;;23.80;99.90;;;;;;5040395;28;20233;-85
2023/08/17 06:39:36;;;;;;;15.85;10.43;;;23.80;99.90;;;;;;5075819;28;20258;-86
2023/08/17 06:42:01;;;;;;;19.33;10.52;;;23.90;99.90;;;;;;5075840;28;20214;-85
2023/08/17 06:44:28;;;;;;;18.88;11.15;;;23.90;99.90;;;;;;5041485;28;20563;-86
2023/08/17 06:46:54;;;;;;;20.55;10.95;;;24.00;99.90;;;;;;5025554;28;20179;-85
2023/08/17 06:49:20;;;;;;;16.95;10.50;;;24.00;99.90;;;;;;5041407;28;20183;-85
2023/08/17 06:51:46;;;;;;;14.63;11.07;;;24.10;99.90;;;;;;5058825;28;20183;-85
2023/08/17 06:54:11;;;;;;;21.77;11.18;;;24.20;99.90;;;;;;5058143;28;20292;-85
2023/08/17 06:56:37;;;;;;;17.67;11.60;;;24.20;99.90;;;;;;5058930;28;20179;-85
2023/08/17 06:59:03;;;;;;;19.23;11.02;;;24.40;99.90;;;;;;5075807;28;20225;-86
2023/08/17 07:01:29;;;;;;;19.10;11.35;;;24.40;99.90;;;;;;5058655;28;20187;-87
2023/08/17 07:03:55;;;;;;;19.02;11.15;;;24.50;99.90;;;;;;5062045;28;20175;-86
2023/08/17 07:06:21;;;;;;;14.15;10.10;;;24.70;99.90;;;;;;5058560;28;20190;-87
2023/08/17 07:08:47;;;;;;;17.92;10.13;;;24.70;99.90;;;;;;5091565;28;20187;-87
2023/08/17 07:11:13;;;;;;;14.48;9.80;;;24.90;99.90;;;;;;5043509;28;20189;-88
2023/08/17 07:13:38;;;;;;;11.40;7.90;;;25.10;99.90;;;;;;5040657;28;20215;-88
2023/08/17 07:16:04;;;;;;;14.07;8.82;;;25.30;99.90;;;;;;5024396;28;20650;-89
2023/08/17 07:18:30;;;;;;;11.10;7.85;;;25.50;99.90;;;;;;5041053;28;20238;-87
2023/08/17 07:20:55;;;;;;;14.32;7.70;;;25.70;99.90;;;;;;5025011;28;20635;-89
2023/08/17 07:23:21;;;;;;;12.38;7.65;;;25.90;99.90;;;;;;5041043;28;20195;-89
2023/08/17 07:25:48;;;;;;;10.55;7.60;;;26.10;99.90;;;;;;5042033;28;20262;-86
2023/08/17 07:28:15;;;;;;;13.63;7.18;;;26.30;99.90;;;;;;5075986;28;20201;-87
2023/08/17 07:30:41;;;;;;;13.48;8.43;;;26.60;99.90;;;;;;5058200;28;20269;-89
2023/08/17 07:33:07;;;;;;;15.63;7.65;;;26.60;99.90;;;;;;5074584;28;20163;-89
2023/08/17 07:35:33;;;;;;;15.07;7.35;;;26.70;99.90;;;;;;5040290;28;20210;-90
2023/08/17 07:37:59;;;;;;;11.98;6.75;;;26.90;99.90;;;;;;5024287;28;20183;-87
2023/08/17 07:40:25;;;;;;;17.05;8.45;;;27.10;99.90;;;;;;5041090;28;20194;-89
2023/08/17 07:42:51;;;;;;;11.95;8.55;;;27.20;99.90;;;;;;5023978;28;20183;-90
2023/08/17 07:45:16;;;;;;;10.68;7.28;;;27.30;99.90;;;;;;5073958;28;20183;-89
2023/08/17 07:47:42;;;;;;;11.40;8.35;;;27.40;99.90;;;;;;5074739;28;20197;-89
2023/08/17 07:50:08;;;;;;;9.32;6.57;;;27.60;99.90;;;;;;5039679;28;20552;-86
2023/08/17 07:52:34;;;;;;;11.05;6.70;;;27.70;99.90;;;;;;5055928;28;20175;-89
2023/08/17 07:55:00;;;;;;;16.35;7.70;;;27.70;99.90;;;;;;5039751;28;20218;-87
2023/08/17 07:57:25;;;;;;;7.90;5.90;;;27.80;99.90;;;;;;5039608;28;20533;-88
2023/08/17 07:59:53;;;;;;;10.25;6.00;;;27.90;99.90;;;;;;5056315;28;20184;-89
2023/08/17 08:02:19;;;;;;;11.40;6.00;;;28.00;99.90;;;;;;5040260;28;20747;-89
2023/08/17 08:04:45;;;;;;;11.00;5.55;;;28.10;99.90;;;;;;5056915;28;20258;-88
2023/08/17 08:07:10;;;;;;;8.25;5.07;;;28.20;99.90;;;;;;5056696;28;20191;-88
2023/08/17 08:09:36;;;;;;;7.43;5.68;;;28.20;99.90;;;;;;5055999;28;20175;-89
2023/08/17 08:12:02;;;;;;;18.67;6.15;;;28.20;99.20;;;;;;5073989;28;20183;-89
2023/08/17 08:14:29;;;;;;;9.40;5.53;;;28.20;99.10;;;;;;5039311;28;20239;-89
2023/08/17 08:16:55;;;;;;;9.52;6.05;;;28.20;99.00;;;;;;5039174;28;20223;-89
2023/08/17 08:19:20;;;;;;;8.50;5.63;;;28.20;98.60;;;;;;5039413;28;20705;-88
2023/08/17 08:21:46;;;;;;;8.02;5.43;;;28.30;98.40;;;;;;5058509;28;20186;-89
2023/08/17 08:24:12;;;;;;;5.13;4.15;;;28.30;98.80;;;;;;5073152;28;20309;-89
2023/08/17 08:26:37;;;;;;;8.90;4.63;;;28.20;95.40;;;;;;5055602;28;20231;-89
2023/08/17 08:29:03;;;;;;;7.15;4.40;;;28.30;95.40;;;;;;5055772;28;20265;-89
2023/08/17 08:31:29;;;;;;;6.70;4.63;;;28.30;95.50;;;;;;5055476;28;20315;-91
2023/08/17 08:33:55;;;;;;;7.35;4.63;;;28.20;94.10;;;;;;5073202;28;20669;-89
2023/08/17 08:36:21;;;;;;;7.60;4.90;;;28.30;94.30;;;;;;5055871;28;20186;-90
2023/08/17 08:38:46;;;;;;;5.18;4.20;;;28.30;93.80;;;;;;5054920;28;20663;-89
2023/08/17 08:41:12;;;;;;;6.68;4.53;;;28.30;94.00;;;;;;5055502;28;20179;-86
2023/08/17 08:43:38;;;;;;;7.82;5.00;;;28.40;94.20;;;;;;5055250;28;20240;-87
2023/08/17 08:46:05;;;;;;;10.57;5.95;;;28.30;93.70;;;;;;5073411;28;20171;-86
2023/08/17 08:48:32;;;;;;;7.47;4.82;;;28.40;94.30;;;;;;5038722;28;20182;-86
2023/08/17 08:51:00;;;;;;;7.05;5.07;;;28.40;94.20;;;;;;5055285;28;20187;-86
2023/08/17 08:53:38;;;;;;;9.35;5.32;;;28.40;95.20;;;;;;5072845;28;20199;-87
2023/08/17 08:56:04;;;;;;;7.10;5.25;;;28.40;94.50;;;;;;5055176;28;20182;-86
2023/08/17 08:58:33;;;;;;;10.00;5.63;;;28.40;95.60;;;;;;5055177;28;20182;-87
2023/08/17 09:01:00;;;;;;;7.60;5.72;;;28.40;95.40;;;;;;5074582;28;20179;-88
2023/08/17 09:03:26;;;;;;;9.90;6.35;;;28.60;95.50;;;;;;5059486;28;20175;-87
2023/08/17 09:05:53;;;;;;;9.30;5.68;;;28.80;94.80;;;;;;5077629;28;20179;-87
2023/08/17 09:08:25;;;;;;;7.43;4.82;;;29.10;94.80;;;;;;5059295;28;20309;-87
2023/08/17 09:10:51;;;;;;;6.88;5.80;;;29.20;94.40;;;;;;5077180;28;20242;-87
2023/08/17 09:13:16;;;;;;;7.95;5.50;;;29.20;93.20;;;;;;5076673;28;20806;-87
2023/08/17 09:15:42;;;;;;;7.57;5.00;;;29.20;93.30;;;;;;5058727;28;20191;-87
2023/08/17 09:18:08;;;;;;;7.72;4.90;;;29.20;90.60;;;;;;5055691;28;20235;-86
2023/08/17 09:20:45;;;;;;;8.02;5.65;;;29.30;91.00;;;;;;5057039;28;20176;-87
2023/08/17 09:23:19;;;;;;;5.80;5.05;;;29.40;90.70;;;;;;5056918;28;20167;-86
2023/08/17 09:25:47;;;;;;;6.90;4.55;;;29.40;90.10;;;;;;5056580;28;20162;-87
2023/08/17 09:28:14;;;;;;;6.43;4.63;;;29.50;85.20;;;;;;5055977;28;20624;-88
2023/08/17 09:31:09;;;;;;;5.15;3.92;;;29.60;84.70;;;;;;5056748;28;20229;-89
2023/08/17 09:33:35;;;;;;;7.57;4.47;;;29.70;83.20;;;;;;5038654;28;20231;-87
2023/08/17 09:36:01;;;;;;;6.85;4.70;;;29.70;83.70;;;;;;5056588;28;20191;-87
2023/08/17 09:38:28;;;;;;;6.50;4.70;;;29.80;83.60;;;;;;5056251;28;20184;-88
2023/08/17 09:40:54;;;;;;;7.28;4.88;;;29.90;81.50;;;;;;5054128;28;20172;-89
2023/08/17 09:43:23;;;;;;;6.95;4.63;;;30.10;81.10;;;;;;5055947;28;20242;-88
2023/08/17 09:45:51;;;;;;;9.52;4.97;;;30.20;82.90;;;;;;5054720;28;20265;-88
2023/08/17 09:48:18;;;;;;;7.47;4.80;;;30.20;81.80;;;;;;5055337;28;20180;-88
2023/08/17 09:50:48;;;;;;;7.88;4.75;;;30.40;81.70;;;;;;5055670;28;20172;-88
2023/08/17 09:53:15;;;;;;;6.72;4.95;;;30.50;83.40;;;;;;5055787;28;20176;-89
2023/08/17 09:55:43;;;;;;;6.18;4.85;;;30.60;84.20;;;;;;5054562;28;20549;-87
2023/08/17 09:58:09;;;;;;;5.07;4.22;;;30.70;81.40;;;;;;5055909;28;20176;-87
2023/08/17 10:00:37;;;;;;;9.40;4.72;;;30.70;79.70;;;;;;5055788;28;20176;-87
2023/08/17 10:03:03;;;;;;;6.47;4.45;;;30.80;78.20;;;;;;5055876;28;20180;-87
2023/08/17 10:05:34;;;;;;;6.57;4.10;;;30.90;76.60;;;;;;5054520;28;20176;-86
2023/08/17 10:08:02;;;;;;;9.93;4.03;;;31.00;76.60;;;;;;5056000;28;20164;-85
2023/08/17 10:10:34;;;;;;;9.48;4.95;;;31.20;75.20;;;;;;5055735;28;20174;-87
2023/08/17 10:13:27;;;;;;;6.50;3.65;;;31.20;71.00;;;;;;5054409;28;20167;-87
2023/08/17 10:16:19;;;;;;;10.73;3.60;;;31.20;68.90;;;;;;5055850;28;20206;-87
2023/08/17 10:18:58;;;;;;;3.95;3.20;;;31.40;70.30;;;;;;5055684;28;20513;-87
2023/08/17 10:21:50;;;;;;;6.88;3.55;;;31.60;69.60;;;;;;5054395;28;20313;-86
2023/08/17 10:24:19;;;;;;;4.32;3.47;;;31.70;64.00;;;;;;5054733;28;20203;-87
2023/08/17 10:26:45;;;;;;;5.38;3.58;;;31.80;64.90;;;;;;5055702;28;20172;-86
2023/08/17 10:29:11;;;;;;;4.72;3.25;;;31.90;62.00;;;;;;5054550;28;20183;-85
2023/08/17 10:31:38;;;;;;;8.32;3.58;;;31.90;61.60;;;;;;5055455;28;20190;-85
2023/08/17 10:34:04;;;;;;;4.78;3.35;;;31.80;63.00;;;;;;5055038;28;20342;-86
2023/08/17 10:36:34;;;;;;;6.05;3.40;;;31.60;62.50;;;;;;5037708;28;20180;-86
2023/08/17 10:39:19;;;;;;;4.25;3.20;;;31.50;61.50;;;;;;5053926;28;20640;-85
2023/08/17 10:41:49;;;;;;;4.40;3.25;;;31.40;61.10;;;;;;5054090;28;20183;-85
2023/08/17 10:44:17;;;;;;;7.40;2.80;;;31.30;60.20;;;;;;5053620;28;20234;-86
2023/08/17 10:46:45;;;;;;;3.53;3.00;;;31.20;62.00;;;;;;5055563;28;20167;-86
2023/08/17 10:49:31;;;;;;;3.78;2.90;;;31.00;62.00;;;;;;5055667;28;20180;-86
2023/08/17 10:52:04;;;;;;;6.03;3.38;;;30.90;62.10;;;;;;5056015;28;20206;-87
2023/08/17 10:54:41;;;;;;;3.45;3.13;;;30.80;62.60;;;;;;5037906;28;20668;-85
2023/08/17 10:57:31;;;;;;;6.03;3.22;;;31.00;63.60;;;;;;5055882;28;20180;-87
2023/08/17 11:00:26;;;;;;;5.63;3.08;;;31.30;62.80;;;;;;5063438;28;20203;-86
2023/08/17 11:03:00;;;;;;;4.72;3.53;;;31.70;61.00;;;;;;5056638;28;20290;-93
2023/08/17 11:05:38;;;;;;;7.38;4.30;;;32.10;63.50;;;;;;5068614;28;20184;-86
2023/08/17 11:08:10;;;;;;;6.00;3.95;;;32.20;64.40;;;;;;5072018;28;20164;-86
2023/08/17 11:10:38;;;;;;;6.85;3.80;;;32.20;60.70;;;;;;5077756;28;20156;-86
2023/08/17 11:13:04;;;;;;;6.47;4.10;;;32.10;60.70;;;;;;5060233;28;20206;-87
2023/08/17 11:15:44;;;;;;;6.32;4.20;;;31.80;64.80;;;;;;5072820;28;20163;-86
2023/08/17 11:18:11;;;;;;;11.20;4.35;;;31.90;61.00;;;;;;5091426;28;20221;-86
2023/08/17 11:20:39;;;;;;;5.00;4.20;;;31.90;61.30;;;;;;5062090;28;20190;-87
2023/08/17 11:23:06;;;;;;;7.25;4.45;;;31.90;68.30;;;;;;5075193;28;20250;-86
2023/08/17 11:25:34;;;;;;;8.57;5.20;;;31.90;62.50;;;;;;5075376;28;20253;-86
2023/08/17 11:28:01;;;;;;;5.70;4.05;;;32.00;61.80;;;;;;5077729;28;20178;-87
2023/08/17 11:30:28;;;;;;;5.60;4.20;;;32.00;61.40;;;;;;5061217;28;20175;-88
2023/08/17 11:32:55;;;;;;;5.65;4.32;;;32.00;61.40;;;;;;5089511;28;20175;-86
2023/08/17 11:35:21;;;;;;;6.85;5.10;;;32.00;64.80;;;;;;5093151;28;20222;-87
2023/08/17 11:37:50;;;;;;;4.40;3.63;;;32.00;61.40;;;;;;5056405;28;20551;-89
2023/08/17 11:40:17;;;;;;;7.43;4.00;;;32.00;62.50;;;;;;5056801;28;20203;-86
2023/08/17 11:42:43;;;;;;;9.88;4.00;;;32.00;63.70;;;;;;5074006;28;20163;-88
2023/08/17 11:45:09;;;;;;;5.78;4.28;;;32.00;59.40;;;;;;5056676;28;20613;-87
2023/08/17 11:47:40;;;;;;;6.57;4.38;;;32.10;60.70;;;;;;5039887;28;20295;-87
2023/08/17 11:50:08;;;;;;;8.48;4.35;;;32.10;59.20;;;;;;5074768;28;20160;-87
2023/08/17 11:52:36;;;;;;;5.20;4.03;;;32.00;59.30;;;;;;5056346;28;20186;-87
2023/08/17 11:55:06;;;;;;;7.47;3.75;;;32.10;63.50;;;;;;5055872;28;20219;-87
2023/08/17 11:57:35;;;;;;;10.82;4.60;;;32.00;59.90;;;;;;5073746;28;20167;-87
2023/08/17 12:00:03;;;;;;;6.93;4.28;;;32.00;60.70;;;;;;5073992;28;20185;-90
2023/08/17 12:02:30;;;;;;;4.22;3.55;;;32.10;58.70;;;;;;5058408;28;20197;-85
2023/08/17 12:04:56;;;;;;;5.90;3.75;;;32.40;59.40;;;;;;5070724;28;20176;-88
2023/08/17 12:07:24;;;;;;;7.53;4.65;;;32.50;59.80;;;;;;5077931;28;20183;-88
2023/08/17 12:09:50;;;;;;;8.63;4.18;;;32.50;60.00;;;;;;5089911;28;20240;-87
2023/08/17 12:12:22;;;;;;;8.43;4.40;;;32.70;62.80;;;;;;5079928;28;20187;-85
2023/08/17 12:14:48;;;;;;;5.03;3.80;;;33.00;59.30;;;;;;5061269;28;20211;-87
2023/08/17 12:17:19;;;;;;;5.50;4.07;;;32.70;58.40;;;;;;5086232;28;20239;-86
2023/08/17 12:19:49;;;;;;;5.80;4.05;;;32.90;57.40;;;;;;5074751;28;20172;-87
2023/08/17 12:22:16;;;;;;;8.00;4.72;;;33.00;57.60;;;;;;5039634;28;20616;-88
2023/08/17 12:24:43;;;;;;;4.95;4.10;;;32.80;60.10;;;;;;5055771;28;20183;-88
2023/08/17 12:27:10;;;;;;;7.60;5.13;;;32.90;61.20;;;;;;5073823;28;20179;-87
2023/08/17 12:29:51;;;;;;;5.18;4.15;;;33.20;60.70;;;;;;5056553;28;20179;-87
2023/08/17 12:32:19;;;;;;;5.70;4.72;;;33.40;58.60;;;;;;5073739;28;20197;-85
2023/08/17 12:34:46;;;;;;;4.78;4.28;;;33.30;58.50;;;;;;5039094;28;20675;-86
2023/08/17 12:37:12;;;;;;;10.73;6.18;;;33.30;58.30;;;;;;5059873;28;20732;-84
2023/08/17 12:39:38;;;;;;;6.45;4.50;;;33.20;58.50;;;;;;5043782;28;20535;-86
2023/08/17 12:42:05;;;;;;;9.43;4.63;;;33.30;57.80;;;;;;5078348;28;20175;-88